Time;durP1;ratioP1;P1;durP2;ratioP2;P2;SDS_P1;SDS_P2;PMS_P1;PMS_P2;Temp;Humidity;BMP_temperature;BMP_pressure;BME280_temperature;BME280_humidity;BME280_pressure;Samples;Min_cycle;Max_cycle;Signal;HPM_P1;HPM_P2
2023/05/13 00:01:56;;;;;;;6.27;3.53;;;;;;;10.93;100.00;96197.56;5008596;28;20493;-86
2023/05/13 00:04:22;;;;;;;5.97;3.47;;;;;;;10.81;100.00;96198.84;5023889;28;20034;-87
2023/05/13 00:06:47;;;;;;;4.80;2.90;;;;;;;10.60;100.00;96194.88;5000145;28;20476;-87
2023/05/13 00:09:13;;;;;;;4.63;3.17;;;;;;;10.42;100.00;96196.75;4994261;28;20049;-88
2023/05/13 00:11:38;;;;;;;5.33;3.20;;;;;;;10.61;100.00;96193.06;5000715;28;20064;-88
2023/05/13 00:14:05;;;;;;;6.07;3.43;;;;;;;10.53;100.00;96193.88;4997317;28;20029;-88
2023/05/13 00:16:30;;;;;;;5.33;3.53;;;;;;;10.44;100.00;96188.75;5003853;28;20022;-87
2023/05/13 00:19:16;;;;;;;4.77;3.20;;;;;;;10.50;100.00;96190.72;5003045;28;20033;-88
2023/05/13 00:21:42;;;;;;;5.90;3.67;;;;;;;10.59;100.00;96189.75;4992740;28;20414;-88
2023/05/13 00:24:07;;;;;;;5.33;3.30;;;;;;;10.76;100.00;96182.72;5000413;28;20064;-88
2023/05/13 00:26:33;;;;;;;6.30;3.07;;;;;;;10.59;100.00;96181.88;5000629;28;20022;-88
2023/05/13 00:28:59;;;;;;;6.17;3.90;;;;;;;10.64;100.00;96187.47;4994310;28;20033;-88
2023/05/13 00:31:25;;;;;;;6.07;3.97;;;;;;;10.61;100.00;96185.16;4990853;28;20033;-87
2023/05/13 00:33:50;;;;;;;5.70;3.70;;;;;;;10.69;100.00;96176.47;5006644;28;20033;-87
2023/05/13 00:36:16;;;;;;;7.00;3.70;;;;;;;10.72;100.00;96184.84;4988806;28;20041;-88
2023/05/13 00:38:43;;;;;;;5.87;3.80;;;;;;;10.62;100.00;96190.25;5003209;28;20036;-88
2023/05/13 00:41:08;;;;;;;5.30;3.47;;;;;;;10.64;100.00;96189.28;5007759;28;20028;-86
2023/05/13 00:43:34;;;;;;;9.63;4.40;;;;;;;10.67;100.00;96195.06;5006358;28;20395;-88
2023/05/13 00:46:00;;;;;;;6.13;4.13;;;;;;;10.78;100.00;96196.53;4997417;28;20040;-88
2023/05/13 00:48:26;;;;;;;9.23;4.40;;;;;;;10.52;100.00;96199.25;5007012;28;20075;-88
2023/05/13 00:50:51;;;;;;;8.50;4.00;;;;;;;10.36;100.00;96194.75;5013634;28;20376;-88
2023/05/13 00:53:17;;;;;;;7.10;3.80;;;;;;;10.42;100.00;96202.03;4994981;28;20490;-88
2023/05/13 00:55:44;;;;;;;7.60;3.47;;;;;;;10.30;100.00;96198.88;4994065;28;20104;-87
2023/05/13 00:58:11;;;;;;;6.30;3.93;;;;;;;10.33;100.00;96187.22;5027272;28;20037;-88
2023/05/13 01:00:45;;;;;;;8.07;4.50;;;;;;;10.51;100.00;96190.56;5007708;28;20026;-87
2023/05/13 01:03:28;;;;;;;10.50;4.07;;;;;;;10.45;100.00;96196.44;4993040;28;20108;-87
2023/05/13 01:06:01;;;;;;;16.00;8.98;;;;;;;10.48;100.00;96192.69;5009858;28;20090;-88
2023/05/13 01:08:33;;;;;;;15.90;9.63;;;;;;;10.60;100.00;96186.97;4998139;28;20735;-87
2023/05/13 01:11:14;;;;;;;17.13;12.27;;;;;;;10.56;100.00;96193.53;5005532;28;20036;-89
2023/05/13 01:13:43;;;;;;;36.90;21.37;;;;;;;10.47;100.00;96194.50;5006612;28;20022;-89
2023/05/13 01:16:35;;;;;;;14.80;9.50;;;;;;;10.37;100.00;96201.69;5029934;28;20094;-89
2023/05/13 01:19:11;;;;;;;6.03;4.27;;;;;;;10.32;100.00;96201.31;4994871;28;20064;-89
2023/05/13 01:21:38;;;;;;;7.43;4.60;;;;;;;10.41;100.00;96200.38;5005002;28;20021;-88
2023/05/13 01:24:04;;;;;;;9.17;4.17;;;;;;;10.50;100.00;96204.69;4995193;28;20041;-89
2023/05/13 01:26:30;;;;;;;8.07;4.67;;;;;;;10.40;100.00;96197.94;5008391;28;20025;-89
2023/05/13 01:28:56;;;;;;;11.87;4.37;;;;;;;10.48;100.00;96196.13;4992661;28;20025;-88
2023/05/13 01:31:23;;;;;;;9.97;5.43;;;;;;;10.32;100.00;96203.97;4993850;28;20026;-89
2023/05/13 01:33:52;;;;;;;11.90;4.23;;;;;;;10.34;100.00;96197.56;4988471;28;20028;-89
2023/05/13 01:36:21;;;;;;;6.60;4.43;;;;;;;10.43;100.00;96203.69;5000321;28;20132;-89
2023/05/13 01:38:48;;;;;;;9.80;4.07;;;;;;;10.29;100.00;96201.66;5006639;28;20484;-89
2023/05/13 01:41:14;;;;;;;8.87;4.40;;;;;;;10.32;100.00;96202.16;4996555;28;20446;-89
2023/05/13 01:43:40;;;;;;;6.60;4.30;;;;;;;10.25;100.00;96202.91;5005788;28;20017;-89
2023/05/13 01:46:12;;;;;;;9.07;4.13;;;;;;;10.57;100.00;96189.09;5012042;28;20053;-88
2023/05/13 01:48:38;;;;;;;6.40;4.00;;;;;;;10.35;100.00;96198.38;5011698;28;20112;-89
2023/05/13 01:51:04;;;;;;;7.03;4.53;;;;;;;10.45;100.00;96206.97;5022619;28;20459;-89
2023/05/13 01:53:30;;;;;;;7.20;4.40;;;;;;;10.23;100.00;96203.09;5008454;28;20025;-88
2023/05/13 01:55:56;;;;;;;7.30;4.30;;;;;;;10.34;100.00;96215.16;4990307;28;20076;-90
2023/05/13 01:58:22;;;;;;;5.73;3.83;;;;;;;10.27;100.00;96211.50;4997152;28;20104;-89
2023/05/13 02:00:47;;;;;;;9.33;4.73;;;;;;;10.26;100.00;96215.09;5000792;28;20022;-89
2023/05/13 02:03:13;;;;;;;7.37;4.20;;;;;;;10.14;100.00;96210.09;4995722;28;20056;-89
2023/05/13 02:05:38;;;;;;;6.07;4.23;;;;;;;10.23;100.00;96207.50;5003441;28;20025;-89
2023/05/13 02:08:11;;;;;;;7.10;4.50;;;;;;;10.28;100.00;96208.72;5002724;28;20029;-89
2023/05/13 02:10:37;;;;;;;8.13;3.80;;;;;;;10.46;100.00;96211.25;4993754;28;20057;-89
2023/05/13 02:13:03;;;;;;;6.70;3.80;;;;;;;10.31;100.00;96207.56;4996120;28;20031;-88
2023/05/13 02:15:28;;;;;;;6.43;4.20;;;;;;;10.15;100.00;96201.22;5006599;28;20027;-88
2023/05/13 02:17:54;;;;;;;6.67;3.83;;;;;;;10.20;100.00;96210.47;4994772;28;20025;-89
2023/05/13 02:20:19;;;;;;;8.73;4.50;;;;;;;10.28;100.00;96205.25;4999019;28;20580;-89
2023/05/13 02:22:45;;;;;;;6.77;4.03;;;;;;;10.28;100.00;96208.72;4997654;28;20026;-88
2023/05/13 02:25:11;;;;;;;6.50;3.83;;;;;;;10.43;100.00;96211.59;5015634;28;20446;-89
2023/05/13 02:27:36;;;;;;;6.73;4.27;;;;;;;10.35;100.00;96206.28;5002404;28;20506;-89
2023/05/13 02:30:02;;;;;;;6.67;3.93;;;;;;;10.42;100.00;96209.91;5000504;28;20097;-88
2023/05/13 02:32:28;;;;;;;6.13;4.10;;;;;;;10.43;100.00;96208.09;5001439;28;20026;-89
2023/05/13 02:34:53;;;;;;;5.90;3.90;;;;;;;10.58;100.00;96212.59;5006955;28;20021;-89
2023/05/13 02:37:19;;;;;;;7.93;4.50;;;;;;;10.51;100.00;96210.78;5020484;28;20116;-89
2023/05/13 02:39:54;;;;;;;9.00;4.20;;;;;;;10.55;100.00;96214.72;5003451;28;20089;-89
2023/05/13 02:42:20;;;;;;;7.10;4.20;;;;;;;10.47;100.00;96214.72;5010228;28;20117;-89
2023/05/13 02:44:47;;;;;;;8.70;3.90;;;;;;;10.37;100.00;96209.56;5012418;28;20391;-89
2023/05/13 02:47:14;;;;;;;6.10;3.67;;;;;;;10.28;100.00;96216.59;5005159;28;20422;-89
2023/05/13 02:49:39;;;;;;;7.90;4.10;;;;;;;10.22;100.00;96211.13;5000293;28;20021;-89
2023/05/13 02:52:05;;;;;;;8.63;4.30;;;;;;;10.31;100.00;96204.94;5014031;28;20032;-89
2023/05/13 02:54:51;;;;;;;6.43;3.37;;;;;;;10.17;100.00;96208.16;5012354;28;20034;-89
2023/05/13 02:57:17;;;;;;;6.87;4.00;;;;;;;10.12;100.00;96206.78;5000344;28;20124;-89
2023/05/13 02:59:43;;;;;;;6.97;3.90;;;;;;;10.10;100.00;96206.13;5001524;28;20498;-89
2023/05/13 03:02:09;;;;;;;8.13;4.40;;;;;;;10.07;100.00;96203.00;5006623;28;20021;-88
2023/05/13 03:04:35;;;;;;;7.93;4.63;;;;;;;10.23;100.00;96199.59;5000187;28;20063;-89
2023/05/13 03:07:00;;;;;;;7.13;4.07;;;;;;;10.42;100.00;96194.13;5006014;28;20022;-88
2023/05/13 03:09:26;;;;;;;8.53;4.97;;;;;;;10.24;100.00;96202.09;5003444;28;20030;-89
2023/05/13 03:11:52;;;;;;;6.90;4.07;;;;;;;10.15;100.00;96200.41;4998532;28;20071;-89
2023/05/13 03:14:17;;;;;;;7.07;4.30;;;;;;;10.18;100.00;96200.09;4991914;28;20025;-89
2023/05/13 03:16:43;;;;;;;7.27;4.17;;;;;;;10.11;100.00;96201.72;5008069;28;20029;-89
2023/05/13 03:19:09;;;;;;;7.73;4.73;;;;;;;10.06;100.00;96202.19;4997865;28;20021;-89
2023/05/13 03:21:35;;;;;;;7.37;4.20;;;;;;;10.29;100.00;96201.66;5004050;28;20060;-88
2023/05/13 03:24:02;;;;;;;7.50;4.50;;;;;;;10.23;100.00;96204.88;4998674;28;20025;-89
2023/05/13 03:26:27;;;;;;;7.67;4.70;;;;;;;10.33;100.00;96206.44;4999881;28;20036;-89
2023/05/13 03:28:53;;;;;;;8.30;4.33;;;;;;;10.50;100.00;96207.31;5013468;28;20025;-89
2023/05/13 03:31:19;;;;;;;8.33;4.53;;;;;;;10.45;100.00;96206.97;5019778;28;20041;-89
2023/05/13 03:33:45;;;;;;;8.10;4.87;;;;;;;10.45;100.00;96212.22;5025418;28;20108;-89
2023/05/13 03:36:12;;;;;;;7.33;4.07;;;;;;;10.44;100.00;96210.59;4995213;28;20029;-88
2023/05/13 03:38:37;;;;;;;7.03;4.37;;;;;;;10.50;100.00;96209.97;4999539;28;20129;-89
2023/05/13 03:41:11;;;;;;;7.40;4.27;;;;;;;10.17;100.00;96213.41;5012430;28;20487;-89
2023/05/13 03:43:36;;;;;;;8.60;5.00;;;;;;;10.25;100.00;96219.50;4997981;28;20031;-89
2023/05/13 03:46:07;;;;;;;8.27;4.50;;;;;;;10.22;100.00;96216.38;4998624;28;20088;-89
2023/05/13 03:48:32;;;;;;;10.80;4.40;;;;;;;10.21;100.00;96222.63;4985451;28;20050;-89
2023/05/13 03:51:01;;;;;;;7.83;4.30;;;;;;;10.40;100.00;96222.41;5001346;28;20511;-89
2023/05/13 03:53:26;;;;;;;8.60;4.53;;;;;;;10.41;100.00;96225.84;5001743;28;20675;-89
2023/05/13 03:55:53;;;;;;;9.33;5.10;;;;;;;10.37;100.00;96225.34;4997500;28;20482;-89
2023/05/13 03:58:21;;;;;;;7.23;4.37;;;;;;;10.46;100.00;96224.41;5004462;28;20076;-89
2023/05/13 04:00:47;;;;;;;9.43;4.80;;;;;;;10.35;100.00;96222.03;5013425;28;20030;-88
2023/05/13 04:03:15;;;;;;;9.40;5.40;;;;;;;10.26;100.00;96223.84;4989053;28;20017;-89
2023/05/13 04:05:46;;;;;;;7.57;4.87;;;;;;;10.47;100.00;96231.31;5005866;28;20025;-88
2023/05/13 04:08:11;;;;;;;9.10;5.50;;;;;;;10.51;100.00;96234.44;5000044;28;20024;-89
2023/05/13 04:10:37;;;;;;;8.13;4.63;;;;;;;10.29;100.00;96233.19;5014838;28;20030;-89
2023/05/13 04:13:03;;;;;;;13.97;8.60;;;;;;;10.42;100.00;96228.31;4998261;28;20036;-89
2023/05/13 04:15:30;;;;;;;13.50;8.37;;;;;;;10.46;100.00;96236.72;4990805;28;20064;-89
2023/05/13 04:17:57;;;;;;;6.90;4.63;;;;;;;10.39;100.00;96239.13;5013690;28;20033;-89
2023/05/13 04:20:22;;;;;;;9.80;4.70;;;;;;;10.39;100.00;96239.13;4993905;28;20491;-89
2023/05/13 04:22:48;;;;;;;10.87;5.50;;;;;;;10.57;100.00;96239.88;4998398;28;20029;-89
2023/05/13 04:25:14;;;;;;;15.97;11.17;;;;;;;10.54;100.00;96239.38;5006259;28;20487;-89
2023/05/13 04:27:40;;;;;;;11.87;6.63;;;;;;;10.48;100.00;96246.09;4997468;28;20156;-89
2023/05/13 04:30:12;;;;;;;7.63;5.50;;;;;;;10.38;100.00;96243.59;5010570;28;20049;-89
2023/05/13 04:32:40;;;;;;;8.43;4.67;;;;;;;10.38;100.00;96238.31;5003256;28;20033;-89
2023/05/13 04:35:06;;;;;;;8.50;4.90;;;;;;;10.46;100.00;96248.06;5009447;28;20030;-89
2023/05/13 04:37:32;;;;;;;9.20;4.33;;;;;;;10.40;100.00;96248.69;4998271;28;20468;-89
2023/05/13 04:40:05;;;;;;;7.63;5.13;;;;;;;10.42;100.00;96246.72;5006463;28;20625;-89
2023/05/13 04:42:31;;;;;;;10.03;5.10;;;;;;;10.31;100.00;96241.75;5010004;28;20033;-89
2023/05/13 04:44:57;;;;;;;7.50;4.70;;;;;;;10.43;100.00;96250.16;4996607;28;20025;-89
2023/05/13 04:47:22;;;;;;;8.73;5.37;;;;;;;10.35;100.00;96250.97;5001741;28;20036;-89
2023/05/13 04:49:48;;;;;;;7.53;4.47;;;;;;;10.59;100.00;96250.22;5021426;28;20041;-89
2023/05/13 04:52:13;;;;;;;8.87;4.80;;;;;;;10.35;100.00;96241.25;5004831;28;20538;-89
2023/05/13 04:54:39;;;;;;;8.17;5.07;;;;;;;10.50;100.00;96249.41;5010184;28;20056;-89
2023/05/13 04:57:06;;;;;;;8.07;5.40;;;;;;;10.62;100.00;96252.53;5004549;28;20029;-89
2023/05/13 04:59:31;;;;;;;8.30;4.90;;;;;;;10.62;100.00;96250.75;4988174;28;20035;-89
2023/05/13 05:01:57;;;;;;;7.97;5.23;;;;;;;10.58;100.00;96254.69;4995121;28;20043;-88
2023/05/13 05:04:24;;;;;;;7.97;5.03;;;;;;;10.70;100.00;96251.78;4997045;28;20026;-89
2023/05/13 05:06:50;;;;;;;8.63;5.10;;;;;;;10.72;100.00;96255.88;5002128;28;20071;-89
2023/05/13 05:09:17;;;;;;;7.70;4.87;;;;;;;10.66;100.00;96250.41;4999127;28;20104;-89
2023/05/13 05:11:45;;;;;;;9.40;6.90;;;;;;;10.79;100.00;96245.53;5007609;28;20030;-89
2023/05/13 05:14:11;;;;;;;10.87;6.40;;;;;;;10.96;100.00;96252.47;5001685;28;20116;-89
2023/05/13 05:16:36;;;;;;;9.70;6.20;;;;;;;10.77;100.00;96263.31;5015198;28;20079;-89
2023/05/13 05:19:12;;;;;;;6.07;4.27;;;;;;;10.67;100.00;96262.59;5024592;28;20031;-90
2023/05/13 05:21:38;;;;;;;6.83;4.90;;;;;;;10.87;100.00;96276.31;5011887;28;20037;-89
2023/05/13 05:24:09;;;;;;;10.83;4.67;;;;;;;10.80;100.00;96271.69;5002822;28;20014;-89
2023/05/13 05:26:35;;;;;;;10.20;5.33;;;;;;;10.72;100.00;96273.47;4988112;28;20080;-90
2023/05/13 05:29:00;;;;;;;7.13;4.43;;;;;;;10.63;100.00;96280.50;4994736;28;20032;-89
2023/05/13 05:31:33;;;;;;;8.27;5.27;;;;;;;10.69;100.00;96276.41;4990510;28;20550;-89
2023/05/13 05:34:04;;;;;;;9.70;5.20;;;;;;;10.66;100.00;96276.72;4997521;28;20025;-89
2023/05/13 05:36:30;;;;;;;10.07;5.13;;;;;;;10.67;100.00;96281.03;5008527;28;20096;-89
2023/05/13 05:38:56;;;;;;;8.80;5.17;;;;;;;10.81;100.00;96286.50;4994952;28;20033;-89
2023/05/13 05:41:28;;;;;;;8.30;4.93;;;;;;;11.05;100.00;96280.47;5003495;28;20009;-91
2023/05/13 05:43:55;;;;;;;8.03;5.00;;;;;;;11.18;100.00;96280.00;5000340;28;20037;-91
2023/05/13 05:46:21;;;;;;;7.80;4.93;;;;;;;10.99;100.00;96283.72;4995215;28;20037;-91
2023/05/13 05:48:48;;;;;;;7.23;4.83;;;;;;;11.08;100.00;96281.97;4994717;28;20120;-91
2023/05/13 05:51:14;;;;;;;6.80;4.77;;;;;;;11.15;100.00;96279.50;5007383;28;20059;-90
2023/05/13 05:53:41;;;;;;;9.73;5.13;;;;;;;11.35;100.00;96277.41;5009596;28;20662;-90
2023/05/13 05:56:07;;;;;;;7.93;4.60;;;;;;;11.33;100.00;96280.19;5019014;28;20048;-91
2023/05/13 05:58:33;;;;;;;7.53;5.00;;;;;;;11.60;100.00;96280.88;5013333;28;20033;-91
2023/05/13 06:00:59;;;;;;;8.50;5.47;;;;;;;11.57;100.00;96282.03;5001064;28;20541;-91
2023/05/13 06:03:26;;;;;;;8.73;4.27;;;;;;;11.71;100.00;96284.00;5003920;28;20574;-91
2023/05/13 06:05:52;;;;;;;6.50;4.20;;;;;;;12.02;100.00;96273.63;5002222;28;20092;-91
2023/05/13 06:08:18;;;;;;;7.17;4.57;;;;;;;12.00;100.00;96266.88;5019630;28;20037;-91
2023/05/13 06:10:44;;;;;;;6.70;4.23;;;;;;;11.89;100.00;96277.78;5026801;28;20034;-91
2023/05/13 06:13:14;;;;;;;8.53;4.13;;;;;;;11.67;100.00;96284.47;5009139;28;20021;-90
2023/05/13 06:15:39;;;;;;;6.60;4.60;;;;;;;11.80;100.00;96285.66;5018217;28;20081;-91
2023/05/13 06:18:05;;;;;;;6.27;4.00;;;;;;;11.75;100.00;96282.69;4998403;28;20396;-91
2023/05/13 06:20:33;;;;;;;6.70;4.30;;;;;;;11.83;100.00;96287.13;5000545;28;20079;-91
2023/05/13 06:23:00;;;;;;;6.33;4.17;;;;;;;11.73;100.00;96289.91;5013682;28;20013;-91
2023/05/13 06:25:26;;;;;;;6.33;4.43;;;;;;;11.74;100.00;96288.13;5005865;28;20507;-90
2023/05/13 06:27:51;;;;;;;6.90;4.40;;;;;;;11.97;100.00;96289.13;5011514;28;20033;-91
2023/05/13 06:30:20;;;;;;;10.40;5.60;;;;;;;12.07;100.00;96282.84;4995430;28;20033;-90
2023/05/13 06:32:45;;;;;;;8.20;5.37;;;;;;;12.15;100.00;96281.03;5013900;28;20048;-90
2023/05/13 06:35:12;;;;;;;7.50;5.40;;;;;;;12.24;100.00;96282.66;4995837;28;20438;-90
2023/05/13 06:37:38;;;;;;;7.30;4.20;;;;;;;12.00;100.00;96280.06;5011189;28;20089;-90
2023/05/13 06:40:04;;;;;;;7.33;4.77;;;;;;;11.99;100.00;96291.59;4999646;28;20021;-90
2023/05/13 06:42:39;;;;;;;7.03;4.53;;;;;;;11.96;100.00;96287.47;5003507;28;20021;-90
2023/05/13 06:45:11;;;;;;;7.30;4.73;;;;;;;11.73;100.00;96294.38;4991286;28;20092;-90
2023/05/13 06:47:36;;;;;;;9.47;4.30;;;;;;;12.21;100.00;96287.44;4988155;28;20021;-90
2023/05/13 06:50:02;;;;;;;7.73;3.93;;;;;;;12.24;100.00;96295.03;5011888;28;20029;-90
2023/05/13 06:52:30;;;;;;;6.40;4.10;;;;;;;11.97;100.00;96290.94;5011327;28;20411;-90
2023/05/13 06:54:56;;;;;;;7.23;4.60;;;;;;;12.00;100.00;96293.22;5015560;28;20028;-93
2023/05/13 06:57:22;;;;;;;7.57;4.40;;;;;;;12.22;100.00;96286.44;5003197;28;20025;-91
2023/05/13 06:59:47;;;;;;;11.40;7.77;;;;;;;11.95;100.00;96291.09;4999148;28;20095;-92
2023/05/13 07:02:13;;;;;;;10.07;8.07;;;;;;;11.94;100.00;96296.56;5003867;28;20056;-93
2023/05/13 07:04:38;;;;;;;39.57;23.07;;;;;;;12.08;100.00;96295.88;5004427;28;20116;-84
2023/05/13 07:07:04;;;;;;;8.13;6.33;;;;;;;12.01;100.00;96295.72;5003070;28;20103;-91
2023/05/13 07:09:30;;;;;;;7.07;4.10;;;;;;;12.30;100.00;96289.06;5022024;28;20032;-92
2023/05/13 07:11:55;;;;;;;8.00;4.93;;;;;;;12.70;100.00;96292.56;5027208;28;20035;-92
2023/05/13 07:14:21;;;;;;;7.53;5.13;;;;;;;12.68;100.00;96291.94;5021123;28;20029;-90
2023/05/13 07:16:49;;;;;;;6.60;4.77;;;;;;;12.68;100.00;96286.66;5016119;28;20021;-93
2023/05/13 07:19:15;;;;;;;6.27;4.30;;;;;;;12.62;100.00;96292.59;4986714;28;20516;-91
2023/05/13 07:21:41;;;;;;;6.00;4.20;;;;;;;12.69;100.00;96290.94;5004743;28;20028;-89
2023/05/13 07:24:06;;;;;;;6.00;4.47;;;;;;;12.52;100.00;96297.25;4993695;28;20025;-89
2023/05/13 07:26:32;;;;;;;7.03;4.47;;;;;;;12.74;100.00;96293.88;5024056;28;20030;-91
2023/05/13 07:28:58;;;;;;;9.93;4.33;;;;;;;12.15;100.00;96298.66;5004125;28;20022;-92
2023/05/13 07:31:24;;;;;;;7.00;3.80;;;;;;;12.39;100.00;96301.25;5008169;28;20034;-92
2023/05/13 07:33:50;;;;;;;9.77;4.70;;;;;;;12.45;100.00;96300.56;5016028;28;20067;-92
2023/05/13 07:36:15;;;;;;;6.33;4.27;;;;;;;12.67;100.00;96303.47;5003266;28;20033;-92
2023/05/13 07:38:41;;;;;;;9.73;6.50;;;;;;;12.72;100.00;96301.16;5008041;28;20779;-92
2023/05/13 07:41:06;;;;;;;7.77;5.60;;;;;;;12.68;100.00;96302.50;5001507;28;20025;-92
2023/05/13 07:43:33;;;;;;;6.77;4.60;;;;;;;12.48;100.00;96302.88;5017468;28;20021;-93
2023/05/13 07:46:02;;;;;;;9.83;4.50;;;;;;;12.30;100.00;96301.44;4999363;28;20021;-92
2023/05/13 07:48:28;;;;;;;7.13;4.90;;;;;;;12.75;100.00;96298.16;5000506;28;20036;-93
2023/05/13 07:51:15;;;;;;;7.20;4.03;;;;;;;12.31;100.00;96296.00;4990786;28;20025;-92
2023/05/13 07:53:40;;;;;;;6.10;4.00;;;;;;;12.26;100.00;96314.94;5010908;28;20101;-92
2023/05/13 07:56:06;;;;;;;6.67;4.20;;;;;;;12.66;100.00;96312.38;5014018;28;20049;-90
2023/05/13 07:58:32;;;;;;;6.37;4.00;;;;;;;12.62;100.00;96298.72;5005961;28;20022;-89
2023/05/13 08:00:58;;;;;;;7.23;4.60;;;;;;;12.80;100.00;96301.09;5009780;28;20083;-90
2023/05/13 08:03:23;;;;;;;9.07;6.03;;;;;;;12.82;100.00;96304.41;5002886;28;20104;-90
2023/05/13 08:05:50;;;;;;;28.90;21.77;;;;;;;13.09;100.00;96302.31;5008413;28;20120;-90
2023/05/13 08:08:16;;;;;;;25.13;17.17;;;;;;;13.01;100.00;96300.53;4997889;28;20179;-90
2023/05/13 08:10:41;;;;;;;18.53;13.13;;;;;;;13.15;100.00;96304.25;4995282;28;20021;-90
2023/05/13 08:13:07;;;;;;;18.40;14.83;;;;;;;13.27;100.00;96297.59;4996844;28;20029;-90
2023/05/13 08:15:32;;;;;;;17.00;13.00;;;;;;;12.93;100.00;96309.28;5010470;28;20025;-90
2023/05/13 08:17:58;;;;;;;14.27;10.03;;;;;;;12.75;100.00;96308.72;5008804;28;20024;-90
2023/05/13 08:20:28;;;;;;;14.70;9.73;;;;;;;13.09;100.00;96305.75;5006589;28;20037;-90
2023/05/13 08:22:57;;;;;;;6.60;4.83;;;;;;;12.81;100.00;96310.69;5008664;28;20018;-89
2023/05/13 08:25:22;;;;;;;9.63;5.30;;;;;;;12.91;100.00;96310.44;4986012;28;20033;-88
2023/05/13 08:27:48;;;;;;;6.70;4.40;;;;;;;12.65;100.00;96311.56;5001781;28;20092;-90
2023/05/13 08:30:14;;;;;;;8.17;4.93;;;;;;;12.87;100.00;96306.53;5013542;28;20023;-89
2023/05/13 08:32:39;;;;;;;5.93;4.30;;;;;;;13.31;100.00;96306.84;5011729;28;20013;-89
2023/05/13 08:35:05;;;;;;;6.70;4.50;;;;;;;13.07;100.00;96313.03;5008207;28;20030;-89
2023/05/13 08:37:31;;;;;;;9.43;5.30;;;;;;;12.98;100.00;96312.25;5015198;28;20029;-89
2023/05/13 08:39:59;;;;;;;7.83;5.40;;;;;;;13.00;100.00;96311.25;5015345;28;20048;-89
2023/05/13 08:42:30;;;;;;;11.57;4.50;;;;;;;13.07;100.00;96309.56;5024666;28;20033;-89
2023/05/13 08:44:57;;;;;;;6.90;4.20;;;;;;;13.04;100.00;96312.53;5025392;28;20029;-88
2023/05/13 08:47:56;;;;;;;7.87;4.70;;;;;;;12.94;100.00;96318.88;5011496;28;20279;-89
2023/05/13 08:50:22;;;;;;;10.67;4.47;;;;;;;13.35;100.00;96323.97;4988186;28;20076;-90
2023/05/13 08:52:54;;;;;;;7.60;4.63;;;;;;;13.50;100.00;96312.66;4993740;28;20496;-89
2023/05/13 08:55:21;;;;;;;10.95;4.90;;;;;;;13.31;100.00;96319.19;5012865;28;20103;-89
2023/05/13 08:57:47;;;;;;;8.23;4.90;;;;;;;13.20;100.00;96318.56;5010814;28;20557;-89
2023/05/13 09:00:13;;;;;;;10.00;5.37;;;;;;;13.21;100.00;96322.03;4998672;28;20025;-89
2023/05/13 09:02:40;;;;;;;10.33;5.33;;;;;;;13.30;100.00;96321.03;5009619;28;20120;-89
2023/05/13 09:05:07;;;;;;;6.93;4.87;;;;;;;13.15;100.00;96320.91;5014754;28;20028;-89
2023/05/13 09:07:34;;;;;;;9.47;5.27;;;;;;;13.56;100.00;96322.53;4993658;28;20044;-89
2023/05/13 09:09:59;;;;;;;8.67;6.03;;;;;;;13.64;100.00;96319.81;5015395;28;20036;-89
2023/05/13 09:12:54;;;;;;;9.80;6.03;;;;;;;13.60;100.00;96319.34;4987390;28;20534;-89
2023/05/13 09:15:25;;;;;;;7.30;5.07;;;;;;;14.25;100.00;96318.00;4987403;28;20044;-89
2023/05/13 09:17:54;;;;;;;11.43;5.17;;;;;;;14.34;100.00;96313.44;5013509;28;20409;-89
2023/05/13 09:20:24;;;;;;;9.10;4.60;;;;;;;14.39;100.00;96314.56;4995443;28;20025;-86
2023/05/13 09:22:52;;;;;;;7.40;4.87;;;;;;;14.39;100.00;96319.03;4991830;28;20018;-88
2023/05/13 09:25:19;;;;;;;6.87;4.43;;;;;;;14.14;100.00;96315.78;5014838;28;20475;-91
2023/05/13 09:27:47;;;;;;;7.97;4.60;;;;;;;14.11;100.00;96308.19;5006412;28;20025;-91
2023/05/13 09:30:13;;;;;;;7.33;5.07;;;;;;;14.17;100.00;96314.59;5008995;28;20601;-91
2023/05/13 09:32:41;;;;;;;9.83;6.03;;;;;;;14.13;100.00;96317.59;4997393;28;20116;-92
2023/05/13 09:35:25;;;;;;;8.60;5.27;;;;;;;14.24;100.00;96318.16;4998645;28;20112;-94
2023/05/13 09:37:51;;;;;;;7.67;5.10;;;;;;;14.15;100.00;96325.34;4996735;28;20368;-94
2023/05/13 09:40:16;;;;;;;7.90;4.90;;;;;;;13.89;100.00;96329.22;5000730;28;20084;-94
2023/05/13 09:42:45;;;;;;;7.83;4.77;;;;;;;13.99;100.00;96320.22;5032027;28;20041;-90
2023/05/13 09:45:13;;;;;;;6.30;4.47;;;;;;;13.88;100.00;96324.94;5000479;28;20029;-90
2023/05/13 09:47:39;;;;;;;7.27;5.00;;;;;;;13.84;100.00;96320.97;4997511;28;20092;-90
2023/05/13 09:53:12;;;;;;;7.33;4.00;;;;;;;14.03;100.00;96327.59;4998233;28;20033;-92
2023/05/13 09:55:37;;;;;;;7.50;4.93;;;;;;;14.03;100.00;96334.72;5001159;28;20034;-91
2023/05/13 09:58:11;;;;;;;5.93;4.00;;;;;;;13.59;100.00;96333.56;5030354;28;20039;-90
2023/05/13 10:00:39;;;;;;;85.17;51.93;;;;;;;13.79;100.00;96333.91;5023241;28;20059;-91
2023/05/13 10:03:06;;;;;;;8.10;4.97;;;;;;;13.97;100.00;96335.44;5003520;28;20030;-91
2023/05/13 10:05:43;;;;;;;5.70;3.97;;;;;;;14.08;100.00;96337.63;5030907;28;20034;-91
2023/05/13 10:08:12;;;;;;;6.37;4.40;;;;;;;13.96;100.00;96339.09;4991258;28;20073;-90
2023/05/13 10:10:39;;;;;;;6.77;4.93;;;;;;;14.34;100.00;96340.72;4997704;28;20033;-91
2023/05/13 10:13:12;;;;;;;7.47;4.40;;;;;;;14.89;100.00;96336.03;5009402;28;20486;-91
2023/05/13 10:15:48;;;;;;;7.43;4.70;;;;;;;15.10;100.00;96332.63;5011674;28;20112;-90
2023/05/13 10:18:16;;;;;;;5.30;3.37;;;;;;;14.29;100.00;96337.78;4998329;28;20530;-91
2023/05/13 10:20:42;;;;;;;6.93;4.53;;;;;;;14.64;100.00;96340.78;5008730;28;20022;-91
2023/05/13 10:23:10;;;;;;;7.53;4.70;;;;;;;14.87;100.00;96339.88;5006431;28;20017;-91
2023/05/13 10:25:36;;;;;;;8.13;4.10;;;;;;;14.80;100.00;96347.72;5013045;28;20018;-91
2023/05/13 10:28:03;;;;;;;8.05;4.32;;;;;;;14.82;100.00;96341.25;5000056;28;20034;-91
2023/05/13 10:30:31;;;;;;;5.22;3.47;;;;;;;15.02;100.00;96338.88;5003409;28;20032;-91
2023/05/13 10:32:58;;;;;;;5.53;3.33;;;;;;;14.85;100.00;96329.44;5009552;28;20018;-90
2023/05/13 10:35:28;;;;;;;6.18;3.70;;;;;;;14.92;100.00;96329.53;5003316;28;20080;-91
2023/05/13 10:38:06;;;;;;;6.28;3.90;;;;;;;14.93;100.00;96324.06;5009871;28;20049;-88
2023/05/13 10:40:56;;;;;;;7.20;3.88;;;;;;;15.01;100.00;96328.44;5016937;28;20124;-91
2023/05/13 10:43:25;;;;;;;7.13;3.50;;;;;;;14.61;100.00;96333.19;5011880;28;20508;-90
2023/05/13 10:45:57;;;;;;;8.20;4.60;;;;;;;14.46;100.00;96335.81;5025145;28;20037;-90
2023/05/13 10:48:23;;;;;;;6.37;3.97;;;;;;;14.52;100.00;96337.78;4997495;28;20033;-90
2023/05/13 10:50:55;;;;;;;9.48;4.38;;;;;;;14.64;100.00;96342.59;5015994;28;20026;-90
2023/05/13 10:53:27;;;;;;;7.95;4.05;;;;;;;14.90;100.00;96339.50;5022692;28;20109;-90
2023/05/13 10:55:58;;;;;;;5.15;3.17;;;;;;;15.51;100.00;96340.03;5023103;28;20021;-89
2023/05/13 10:58:31;;;;;;;5.15;3.63;;;;;;;15.49;100.00;96331.44;5008716;28;20072;-90
2023/05/13 11:01:33;;;;;;;5.80;3.90;;;;;;;15.45;100.00;96330.19;5006756;28;20092;-90
2023/05/13 11:04:01;;;;;;;5.75;3.30;;;;;;;15.49;100.00;96324.34;4953239;29;20078;-89
2023/05/13 11:06:35;;;;;;;4.90;3.60;;;;;;;15.77;100.00;96319.13;4991828;28;20128;-90
2023/05/13 11:09:05;;;;;;;5.93;4.20;;;;;;;15.66;100.00;96332.03;4988166;28;20049;-90
2023/05/13 11:11:33;;;;;;;5.85;3.47;;;;;;;15.62;100.00;96331.59;4989388;28;20033;-90
2023/05/13 11:14:05;;;;;;;5.57;3.65;;;;;;;15.69;100.00;96329.03;5033809;28;20546;-90
2023/05/13 11:16:33;;;;;;;9.68;3.95;;;;;;;15.42;100.00;96331.38;5003985;28;20029;-93
2023/05/13 11:19:01;;;;;;;7.82;4.47;;;;;;;15.74;100.00;96324.81;5019624;28;20096;-92
2023/05/13 11:21:39;;;;;;;7.50;4.72;;;;;;;15.42;100.00;96326.06;5030095;28;20064;-94
2023/05/13 11:24:06;;;;;;;6.45;3.63;;;;;;;14.87;100.00;96334.59;5025769;28;20025;-93
2023/05/13 11:26:53;;;;;;;5.57;3.50;;;;;;;14.78;100.00;96334.66;5006969;28;20076;-93
2023/05/13 11:29:35;;;;;;;8.77;5.53;;;;;;;15.06;100.00;96332.19;5010627;28;20041;-93
2023/05/13 11:32:05;;;;;;;7.72;5.07;;;;;;;15.21;100.00;96329.50;5004905;28;20025;-93